createdAt,value
2022-08-29T00:00:17.681Z,18.80
2022-08-29T00:02:48.319Z,18.80
2022-08-29T00:05:18.093Z,18.70
2022-08-29T00:07:46.507Z,18.70
2022-08-29T00:10:15.200Z,18.70
2022-08-29T00:12:43.721Z,18.80
2022-08-29T00:15:13.730Z,18.70
2022-08-29T00:17:42.151Z,18.60
2022-08-29T00:20:13.440Z,18.60
2022-08-29T00:22:44.346Z,18.60
2022-08-29T00:25:13.974Z,18.50
2022-08-29T00:27:44.628Z,18.60
2022-08-29T00:30:19.103Z,18.60
2022-08-29T00:32:47.323Z,18.50
2022-08-29T00:35:17.738Z,18.50
2022-08-29T00:37:47.620Z,18.50
2022-08-29T00:40:20.671Z,18.40
2022-08-29T00:42:49.108Z,18.40
2022-08-29T00:45:18.920Z,18.40
2022-08-29T00:47:51.594Z,18.50
2022-08-29T00:50:26.930Z,18.50
2022-08-29T00:52:58.280Z,18.40
2022-08-29T00:55:34.537Z,18.40
2022-08-29T00:58:11.773Z,18.40
2022-08-29T01:00:44.304Z,18.40
2022-08-29T01:03:13.881Z,18.40
2022-08-29T01:05:48.291Z,18.30
2022-08-29T01:08:20.800Z,18.30
2022-08-29T01:11:06.838Z,18.30
2022-08-29T01:13:41.750Z,18.20
2022-08-29T01:16:13.699Z,18.20
2022-08-29T01:18:45.373Z,18.10
2022-08-29T01:21:22.356Z,18.10
2022-08-29T01:24:00.474Z,18.10
2022-08-29T01:26:32.488Z,18.00
2022-08-29T01:29:02.365Z,18.00
2022-08-29T01:31:56.415Z,17.90
2022-08-29T01:34:30.992Z,17.90
2022-08-29T01:37:06.352Z,17.90
2022-08-29T01:39:37.962Z,17.90
2022-08-29T01:42:20.538Z,17.80
2022-08-29T01:44:57.992Z,17.80
2022-08-29T01:47:41.078Z,17.80
2022-08-29T01:50:16.235Z,17.90
2022-08-29T01:52:48.390Z,18.00
2022-08-29T01:55:17.050Z,18.00
2022-08-29T01:57:48.349Z,17.90
2022-08-29T02:00:27.563Z,17.80
2022-08-29T02:03:00.342Z,17.80
2022-08-29T02:05:33.155Z,17.80
2022-08-29T02:08:01.419Z,17.80
2022-08-29T02:10:30.447Z,17.80
2022-08-29T02:13:03.811Z,17.80
2022-08-29T02:15:33.641Z,17.70
2022-08-29T02:18:18.636Z,17.70
2022-08-29T02:20:56.194Z,17.60
2022-08-29T02:23:30.819Z,17.60
2022-08-29T02:26:01.268Z,17.60
2022-08-29T02:28:34.517Z,17.60
2022-08-29T02:31:08.103Z,17.60
2022-08-29T02:33:40.367Z,17.60
2022-08-29T02:36:10.509Z,17.60
2022-08-29T02:38:40.799Z,17.60
2022-08-29T02:41:27.411Z,17.70
2022-08-29T02:44:01.361Z,17.60
2022-08-29T02:46:35.728Z,17.60
2022-08-29T02:49:07.352Z,17.50
2022-08-29T02:51:44.596Z,17.40
2022-08-29T02:54:13.602Z,17.40
2022-08-29T02:56:57.866Z,17.30
2022-08-29T02:59:43.767Z,17.30
2022-08-29T03:05:03.419Z,17.20
2022-08-29T03:07:49.087Z,17.20
2022-08-29T03:10:22.099Z,17.20
2022-08-29T03:12:52.877Z,17.10
2022-08-29T03:15:27.870Z,17.10
2022-08-29T03:18:11.238Z,17.10
2022-08-29T03:20:42.376Z,17.10
2022-08-29T03:23:13.015Z,17.10
2022-08-29T03:25:43.509Z,17.00
2022-08-29T03:28:15.260Z,17.00
2022-08-29T03:30:54.598Z,17.00
2022-08-29T03:33:25.227Z,17.00
2022-08-29T03:35:55.953Z,16.90
2022-08-29T03:38:24.669Z,16.80
2022-08-29T03:41:06.654Z,16.80
2022-08-29T03:43:44.524Z,16.80
2022-08-29T03:46:25.376Z,16.80
2022-08-29T03:48:55.334Z,16.80
2022-08-29T03:51:29.549Z,16.80
2022-08-29T03:53:59.571Z,16.80
2022-08-29T03:56:29.747Z,16.80
2022-08-29T03:59:04.987Z,16.80
2022-08-29T04:01:39.107Z,16.80
2022-08-29T04:04:32.097Z,16.70
2022-08-29T04:07:04.520Z,16.80
2022-08-29T04:09:44.660Z,16.70
2022-08-29T04:12:17.267Z,16.70
2022-08-29T04:14:55.788Z,16.70
2022-08-29T04:17:28.243Z,16.70
2022-08-29T04:19:57.253Z,16.60
2022-08-29T04:22:26.215Z,16.60
2022-08-29T04:30:26.141Z,16.50
2022-08-29T04:32:56.442Z,16.50
2022-08-29T04:35:25.355Z,16.50
2022-08-29T04:37:56.215Z,16.50
2022-08-29T04:40:25.784Z,16.40
2022-08-29T04:43:06.607Z,16.40
2022-08-29T04:45:47.782Z,16.40
2022-08-29T04:48:23.904Z,16.50
2022-08-29T04:51:06.102Z,16.50
2022-08-29T04:53:39.294Z,16.50
2022-08-29T04:56:17.572Z,16.50
2022-08-29T04:58:49.824Z,16.60
2022-08-29T05:01:27.795Z,16.60
2022-08-29T05:04:10.246Z,16.70
2022-08-29T05:06:49.430Z,16.70
2022-08-29T05:09:25.252Z,16.70
2022-08-29T05:11:58.161Z,16.70
2022-08-29T05:14:35.047Z,16.80
2022-08-29T05:17:07.386Z,16.80
2022-08-29T05:19:45.190Z,16.80
2022-08-29T05:22:16.968Z,17.00
2022-08-29T05:24:47.954Z,17.00
2022-08-29T05:27:35.783Z,17.00
2022-08-29T05:30:06.759Z,17.10
2022-08-29T05:32:39.505Z,17.20
2022-08-29T05:35:15.407Z,17.30
2022-08-29T05:37:59.625Z,17.30
2022-08-29T05:40:29.307Z,17.50
2022-08-29T05:43:08.504Z,17.50
2022-08-29T05:45:38.881Z,17.50
2022-08-29T05:48:10.946Z,17.50
2022-08-29T05:50:49.078Z,17.70
2022-08-29T05:53:23.661Z,17.80
2022-08-29T05:55:54.250Z,17.90
2022-08-29T05:58:28.279Z,17.90
2022-08-29T06:01:00.233Z,18.10
2022-08-29T06:03:33.583Z,18.20
2022-08-29T06:06:04.406Z,18.30
2022-08-29T06:08:49.999Z,18.30
2022-08-29T06:11:22.509Z,18.40
2022-08-29T06:14:06.989Z,18.40
2022-08-29T06:16:37.475Z,18.50
2022-08-29T06:19:15.755Z,18.60
2022-08-29T06:21:52.566Z,18.60
2022-08-29T06:24:24.739Z,18.80
2022-08-29T06:26:55.117Z,18.80
2022-08-29T06:29:43.453Z,18.90
2022-08-29T06:32:19.973Z,19.00
2022-08-29T06:34:53.607Z,19.10
2022-08-29T06:37:23.246Z,19.20
2022-08-29T06:39:51.679Z,19.20
2022-08-29T06:42:28.603Z,19.40
2022-08-29T06:45:02.867Z,19.40
2022-08-29T06:47:38.561Z,19.50
2022-08-29T06:50:10.192Z,19.70
2022-08-29T06:52:47.078Z,19.80
2022-08-29T06:55:16.191Z,20.00
2022-08-29T06:57:57.112Z,20.10
2022-08-29T07:00:25.435Z,20.20
2022-08-29T07:02:58.174Z,20.30
2022-08-29T07:05:28.066Z,20.40
2022-08-29T07:08:08.829Z,20.60
2022-08-29T07:10:41.886Z,20.70
2022-08-29T07:13:17.560Z,20.70
2022-08-29T07:15:48.990Z,20.60
2022-08-29T07:18:18.193Z,20.80
2022-08-29T07:20:47.794Z,20.80
2022-08-29T07:23:28.340Z,20.70
2022-08-29T07:26:05.729Z,20.70
2022-08-29T07:28:40.000Z,20.90
2022-08-29T07:31:22.752Z,21.10
2022-08-29T07:34:04.209Z,21.20
2022-08-29T07:39:28.006Z,21.20
2022-08-29T07:41:57.624Z,21.30
2022-08-29T07:44:40.943Z,21.30
2022-08-29T07:47:16.575Z,21.30
2022-08-29T07:49:49.920Z,21.30
2022-08-29T07:52:20.980Z,21.50
2022-08-29T07:54:56.318Z,21.60
2022-08-29T07:57:29.558Z,21.70
2022-08-29T08:00:04.195Z,21.70
2022-08-29T08:02:39.909Z,21.80
2022-08-29T08:05:11.808Z,21.90
2022-08-29T08:07:40.450Z,21.90
2022-08-29T08:10:11.142Z,21.80
2022-08-29T08:12:39.512Z,21.90
2022-08-29T08:15:08.339Z,21.90
2022-08-29T08:17:38.890Z,22.00
2022-08-29T08:20:10.313Z,22.00
2022-08-29T08:22:38.657Z,22.00
2022-08-29T08:25:10.766Z,21.90
2022-08-29T08:27:43.330Z,22.00
2022-08-29T08:30:13.064Z,21.80
2022-08-29T08:32:46.106Z,22.10
2022-08-29T08:35:22.680Z,22.00
2022-08-29T08:38:07.386Z,22.30
2022-08-29T08:40:48.454Z,22.60
2022-08-29T08:43:26.844Z,22.80
2022-08-29T08:46:03.314Z,22.90
2022-08-29T08:48:39.014Z,23.10
2022-08-29T08:51:25.936Z,23.00
2022-08-29T08:53:59.109Z,22.90
2022-08-29T08:56:38.846Z,22.80
2022-08-29T08:59:19.144Z,23.10
2022-08-29T09:02:07.169Z,23.20
2022-08-29T09:07:48.670Z,23.80
2022-08-29T09:10:28.982Z,23.80
2022-08-29T09:13:04.419Z,23.70
2022-08-29T09:15:39.024Z,23.80
2022-08-29T09:18:13.596Z,23.80
2022-08-29T09:20:44.001Z,24.00
2022-08-29T09:23:19.636Z,23.90
2022-08-29T09:25:48.464Z,23.60
2022-08-29T09:28:18.214Z,23.70
2022-08-29T09:31:18.166Z,23.80
2022-08-29T09:33:49.992Z,23.90
2022-08-29T09:36:37.233Z,24.00
2022-08-29T09:39:18.274Z,24.00
2022-08-29T09:41:49.540Z,24.10
2022-08-29T09:44:26.007Z,24.00
2022-08-29T09:47:07.843Z,24.10
2022-08-29T09:49:38.563Z,24.30
2022-08-29T09:52:12.466Z,24.30
2022-08-29T09:54:41.447Z,24.30
2022-08-29T09:57:21.187Z,24.20
2022-08-29T10:00:07.032Z,24.30
2022-08-29T10:02:44.989Z,24.30
2022-08-29T10:05:33.857Z,24.40
2022-08-29T10:08:04.714Z,24.60
2022-08-29T10:10:36.292Z,24.60
2022-08-29T10:13:11.930Z,24.80
2022-08-29T10:15:50.906Z,24.80
2022-08-29T10:18:25.208Z,24.80
2022-08-29T10:21:07.790Z,24.70
2022-08-29T10:23:45.885Z,24.80
2022-08-29T10:26:30.860Z,24.80
2022-08-29T10:29:10.272Z,25.00
2022-08-29T10:31:47.184Z,25.10
2022-08-29T10:34:36.248Z,25.20
2022-08-29T10:37:15.615Z,25.10
2022-08-29T10:39:51.097Z,25.30
2022-08-29T10:42:26.554Z,25.20
2022-08-29T10:45:14.847Z,25.30
2022-08-29T10:47:52.246Z,25.30
2022-08-29T10:50:45.270Z,25.40
2022-08-29T10:53:20.068Z,25.40
2022-08-29T10:55:55.665Z,25.50
2022-08-29T10:58:35.292Z,25.40
2022-08-29T11:01:09.580Z,25.60
2022-08-29T11:03:45.280Z,25.80
2022-08-29T11:06:22.741Z,25.90
2022-08-29T11:08:57.786Z,26.00
2022-08-29T11:11:29.995Z,26.00
2022-08-29T11:14:05.617Z,26.20
2022-08-29T11:16:39.675Z,26.40
2022-08-29T11:19:21.612Z,26.60
2022-08-29T11:21:56.665Z,26.80
2022-08-29T11:24:35.062Z,27.00
2022-08-29T11:27:22.335Z,27.20
2022-08-29T11:30:02.264Z,27.20
2022-08-29T11:32:43.647Z,27.20
2022-08-29T11:35:22.038Z,26.90
2022-08-29T11:38:37.397Z,27.20
2022-08-29T11:41:27.492Z,27.30
2022-08-29T11:44:12.415Z,27.60
2022-08-29T11:46:43.940Z,27.70
2022-08-29T11:49:37.213Z,27.60
2022-08-29T11:52:22.326Z,27.60
2022-08-29T11:55:16.570Z,27.80
2022-08-29T11:57:52.454Z,27.80
2022-08-29T12:00:47.918Z,28.00
2022-08-29T12:03:53.218Z,27.90
2022-08-29T12:07:01.050Z,27.80
2022-08-29T12:10:05.151Z,28.00
2022-08-29T12:12:55.786Z,28.40
2022-08-29T12:15:59.444Z,28.60
2022-08-29T12:18:57.518Z,28.70
2022-08-29T12:22:05.018Z,29.00
2022-08-29T12:24:57.890Z,29.10
2022-08-29T12:28:06.274Z,29.20
2022-08-29T12:30:39.649Z,29.30
2022-08-29T12:33:26.185Z,29.30
2022-08-29T12:36:19.435Z,29.80
2022-08-29T12:39:04.686Z,29.70
2022-08-29T12:41:49.833Z,29.50
2022-08-29T12:44:22.288Z,29.60
2022-08-29T12:46:56.947Z,29.90
2022-08-29T12:49:26.975Z,30.20
2022-08-29T12:51:58.015Z,30.50
2022-08-29T12:54:34.752Z,30.40
2022-08-29T12:57:07.309Z,29.90
2022-08-29T12:59:36.162Z,30.20
2022-08-29T13:02:04.489Z,30.60
2022-08-29T13:04:33.967Z,30.30
2022-08-29T13:07:04.271Z,30.50
2022-08-29T13:09:35.055Z,30.70
2022-08-29T13:12:14.562Z,30.60
2022-08-29T13:14:56.273Z,30.50
2022-08-29T13:17:27.409Z,30.80
2022-08-29T13:20:32.877Z,31.20
2022-08-29T13:23:18.408Z,31.20
2022-08-29T13:26:00.312Z,31.70
2022-08-29T13:28:36.120Z,32.00
2022-08-29T13:31:23.234Z,32.10
2022-08-29T13:34:20.641Z,31.80
2022-08-29T13:37:06.330Z,31.60
2022-08-29T13:39:45.838Z,31.40
2022-08-29T13:42:23.277Z,32.00
2022-08-29T13:45:10.535Z,31.90
2022-08-29T13:47:56.551Z,32.20
2022-08-29T13:50:26.226Z,31.90
2022-08-29T13:52:55.666Z,31.90
2022-08-29T13:55:24.327Z,32.00
2022-08-29T13:57:54.708Z,32.30
2022-08-29T14:00:32.172Z,32.00
2022-08-29T14:03:05.416Z,31.90
2022-08-29T14:05:35.298Z,32.00
2022-08-29T14:08:04.627Z,31.70
2022-08-29T14:10:33.265Z,31.70
2022-08-29T14:13:01.586Z,32.20
2022-08-29T14:15:31.267Z,32.40
2022-08-29T14:18:00.051Z,32.20
2022-08-29T14:20:28.301Z,31.90
2022-08-29T14:22:56.541Z,31.90
2022-08-29T14:25:24.897Z,32.20
2022-08-29T14:27:53.635Z,32.30
2022-08-29T14:30:24.841Z,32.70
2022-08-29T14:32:54.650Z,32.60
2022-08-29T14:35:26.784Z,33.30
2022-08-29T14:38:00.497Z,33.80
2022-08-29T14:40:29.312Z,34.20
2022-08-29T14:42:58.085Z,34.20
2022-08-29T14:45:26.493Z,34.30
2022-08-29T14:47:56.418Z,34.30
2022-08-29T14:50:25.350Z,34.30
2022-08-29T14:52:54.185Z,34.20
2022-08-29T14:55:23.070Z,33.70
2022-08-29T14:57:51.423Z,33.40
2022-08-29T15:00:22.258Z,33.20
2022-08-29T15:02:50.983Z,33.80
2022-08-29T15:05:20.961Z,33.90
2022-08-29T15:07:49.159Z,34.30
2022-08-29T15:10:20.035Z,34.40
2022-08-29T15:12:48.222Z,34.30
2022-08-29T15:15:16.393Z,34.10
2022-08-29T15:17:44.823Z,34.30
2022-08-29T15:23:05.098Z,34.50
2022-08-29T15:25:33.356Z,34.70
2022-08-29T15:28:01.612Z,35.10
2022-08-29T15:30:29.823Z,35.40
2022-08-29T15:32:58.060Z,35.90
2022-08-29T15:35:26.254Z,35.90
2022-08-29T15:37:54.863Z,35.70
2022-08-29T15:40:24.959Z,35.30
2022-08-29T15:42:53.113Z,35.70
2022-08-29T15:45:22.740Z,36.60
2022-08-29T15:47:54.166Z,37.40
2022-08-29T15:50:23.725Z,39.30
2022-08-29T15:52:52.383Z,41.00
2022-08-29T15:55:21.511Z,41.40
2022-08-29T15:57:52.827Z,41.00
2022-08-29T16:00:29.622Z,40.20
2022-08-29T16:02:58.336Z,39.00
2022-08-29T16:05:26.843Z,38.30
2022-08-29T16:07:55.038Z,40.90
2022-08-29T16:10:23.324Z,44.60
2022-08-29T16:12:52.930Z,45.20
2022-08-29T16:15:21.326Z,42.80
2022-08-29T16:17:49.482Z,41.10
2022-08-29T16:20:17.963Z,40.40
2022-08-29T16:22:46.363Z,40.20
2022-08-29T16:25:15.047Z,39.80
2022-08-29T16:27:43.396Z,38.30
2022-08-29T16:30:13.924Z,35.70
2022-08-29T16:32:42.097Z,34.10
2022-08-29T16:35:11.194Z,32.70
2022-08-29T16:37:39.591Z,31.80
2022-08-29T16:40:08.908Z,31.30
2022-08-29T16:42:39.263Z,30.80
2022-08-29T16:45:09.843Z,30.30
2022-08-29T16:47:39.770Z,30.30
2022-08-29T16:50:12.160Z,30.30
2022-08-29T16:52:41.308Z,30.20
2022-08-29T16:55:10.433Z,29.90
2022-08-29T16:57:38.795Z,29.50
2022-08-29T17:00:10.533Z,29.20
2022-08-29T17:02:40.228Z,29.10
2022-08-29T17:05:09.014Z,29.00
2022-08-29T17:07:36.047Z,28.70
2022-08-29T17:10:04.182Z,28.60
2022-08-29T17:12:31.234Z,28.70
2022-08-29T17:14:58.288Z,28.70
2022-08-29T17:17:26.719Z,28.70
2022-08-29T17:19:56.255Z,28.60
2022-08-29T17:22:25.128Z,28.60
2022-08-29T17:24:53.461Z,28.70
2022-08-29T17:27:22.302Z,28.70
2022-08-29T17:29:52.180Z,28.60
2022-08-29T17:32:20.428Z,28.50
2022-08-29T17:34:49.029Z,28.40
2022-08-29T17:37:18.817Z,28.30
2022-08-29T17:39:46.972Z,28.30
2022-08-29T17:42:15.788Z,28.20
2022-08-29T17:44:46.107Z,28.10
2022-08-29T17:47:14.538Z,28.00
2022-08-29T17:49:42.989Z,27.70
2022-08-29T17:52:11.267Z,27.40
2022-08-29T17:54:41.090Z,27.20
2022-08-29T17:57:09.638Z,26.90
2022-08-29T17:59:38.553Z,26.70
2022-08-29T18:02:07.063Z,26.40
2022-08-29T18:04:35.269Z,26.30
2022-08-29T18:07:04.401Z,26.20
2022-08-29T18:09:32.630Z,25.90
2022-08-29T18:12:02.184Z,25.60
2022-08-29T18:14:30.529Z,25.50
2022-08-29T18:16:58.920Z,25.30
2022-08-29T18:19:27.374Z,25.20
2022-08-29T18:21:55.814Z,25.10
2022-08-29T18:24:24.565Z,25.00
2022-08-29T18:26:53.212Z,24.80
2022-08-29T18:29:23.076Z,24.80
2022-08-29T18:31:51.333Z,24.70
2022-08-29T18:34:19.963Z,24.50
2022-08-29T18:36:48.886Z,24.40
2022-08-29T18:39:18.980Z,24.30
2022-08-29T18:41:47.939Z,24.10
2022-08-29T18:44:16.196Z,24.00
2022-08-29T18:46:48.188Z,23.90
2022-08-29T18:49:16.919Z,23.90
2022-08-29T18:51:45.122Z,23.80
2022-08-29T18:54:16.315Z,23.70
2022-08-29T18:56:47.154Z,23.70
2022-08-29T18:59:15.438Z,23.70
2022-08-29T19:01:45.394Z,23.60
2022-08-29T19:04:13.739Z,23.50
2022-08-29T19:06:41.893Z,23.40
2022-08-29T19:09:10.167Z,23.40
2022-08-29T19:11:38.451Z,23.30
2022-08-29T19:14:06.916Z,23.20
2022-08-29T19:16:36.970Z,23.10
2022-08-29T19:19:07.432Z,23.10
2022-08-29T19:21:41.678Z,23.10
2022-08-29T19:24:10.155Z,23.00
2022-08-29T19:26:40.125Z,22.90
2022-08-29T19:29:12.724Z,22.90
2022-08-29T19:31:41.549Z,22.80
2022-08-29T19:34:11.455Z,22.80
2022-08-29T19:36:42.957Z,22.80
2022-08-29T19:39:15.832Z,22.80
2022-08-29T19:41:44.152Z,22.80
2022-08-29T19:44:12.380Z,22.80
2022-08-29T19:46:48.662Z,22.80
2022-08-29T19:49:19.070Z,22.80
2022-08-29T19:51:47.619Z,22.70
2022-08-29T19:54:16.360Z,22.60
2022-08-29T19:56:46.665Z,22.50
2022-08-29T19:59:15.668Z,22.60
2022-08-29T20:01:45.011Z,22.60
2022-08-29T20:04:13.536Z,22.70
2022-08-29T20:06:43.998Z,22.60
2022-08-29T20:09:13.622Z,22.50
2022-08-29T20:11:43.676Z,22.50
2022-08-29T20:14:14.050Z,22.50
2022-08-29T20:16:42.996Z,22.40
2022-08-29T20:19:12.643Z,22.30
2022-08-29T20:21:43.437Z,22.20
2022-08-29T20:24:15.495Z,22.00
2022-08-29T20:26:45.325Z,22.00
2022-08-29T20:29:14.052Z,22.00
2022-08-29T20:31:42.821Z,21.90
2022-08-29T20:34:11.326Z,21.90
2022-08-29T20:37:08.727Z,21.80
2022-08-29T20:39:38.633Z,21.70
2022-08-29T20:42:08.361Z,21.60
2022-08-29T20:44:41.756Z,21.50
2022-08-29T20:47:12.709Z,21.50
2022-08-29T20:49:42.805Z,21.40
2022-08-29T20:52:13.658Z,21.40
2022-08-29T20:54:46.075Z,21.30
2022-08-29T20:57:14.917Z,21.30
2022-08-29T20:59:44.210Z,21.30
2022-08-29T21:02:14.004Z,21.20
2022-08-29T21:04:59.867Z,21.10
2022-08-29T21:07:28.432Z,21.10
2022-08-29T21:09:58.069Z,21.10
2022-08-29T21:12:28.083Z,21.30
2022-08-29T21:14:56.291Z,21.10
2022-08-29T21:17:24.555Z,21.10
2022-08-29T21:19:52.746Z,21.00
2022-08-29T21:22:24.831Z,20.90
2022-08-29T21:24:55.235Z,20.90
2022-08-29T21:27:26.538Z,20.80
2022-08-29T21:29:56.789Z,20.80
2022-08-29T21:32:25.049Z,20.80
2022-08-29T21:34:53.264Z,20.80
2022-08-29T21:37:21.494Z,20.70
2022-08-29T21:39:50.017Z,20.70
2022-08-29T21:42:18.419Z,20.70
2022-08-29T21:44:48.011Z,20.60
2022-08-29T21:47:17.946Z,20.50
2022-08-29T21:49:48.458Z,20.50
2022-08-29T21:52:16.632Z,20.40
2022-08-29T21:54:44.820Z,20.30
2022-08-29T21:57:17.366Z,20.30
2022-08-29T21:59:47.538Z,20.20
2022-08-29T22:02:17.553Z,20.20
2022-08-29T22:04:45.806Z,20.20
2022-08-29T22:07:13.975Z,20.20
2022-08-29T22:09:43.170Z,20.10
2022-08-29T22:12:11.497Z,20.00
2022-08-29T22:14:56.861Z,20.00
2022-08-29T22:17:26.571Z,19.90
2022-08-29T22:19:54.742Z,19.90
2022-08-29T22:22:22.977Z,19.90
2022-08-29T22:24:51.160Z,19.80
2022-08-29T22:27:19.478Z,19.80
2022-08-29T22:29:47.621Z,19.80
2022-08-29T22:32:15.797Z,19.80
2022-08-29T22:34:45.354Z,19.80
2022-08-29T22:37:13.528Z,19.90
2022-08-29T22:39:41.650Z,19.90
2022-08-29T22:42:10.355Z,19.80
2022-08-29T22:45:02.224Z,19.80
2022-08-29T22:47:27.145Z,19.80
2022-08-29T22:49:56.752Z,19.70
2022-08-29T22:52:24.943Z,19.70
2022-08-29T22:54:53.502Z,19.60
2022-08-29T22:57:21.894Z,19.70
2022-08-29T22:59:50.210Z,19.60
2022-08-29T23:02:20.009Z,19.60
2022-08-29T23:04:49.653Z,19.50
2022-08-29T23:07:19.548Z,19.60
2022-08-29T23:09:48.088Z,19.50
2022-08-29T23:12:16.511Z,19.50
2022-08-29T23:14:46.516Z,19.50
2022-08-29T23:17:16.139Z,19.50
2022-08-29T23:19:45.247Z,19.50
2022-08-29T23:22:15.172Z,19.50
2022-08-29T23:24:57.720Z,19.50
2022-08-29T23:27:26.684Z,19.40
2022-08-29T23:29:54.835Z,19.40
2022-08-29T23:32:23.074Z,19.40
2022-08-29T23:34:51.251Z,19.30
2022-08-29T23:37:19.508Z,19.30
2022-08-29T23:39:49.034Z,19.40
2022-08-29T23:42:17.534Z,19.50
2022-08-29T23:44:45.813Z,19.40
2022-08-29T23:47:16.770Z,19.40
2022-08-29T23:49:45.025Z,19.40
2022-08-29T23:52:13.463Z,19.40
2022-08-29T23:54:41.746Z,19.40
2022-08-29T23:57:11.327Z,19.30
2022-08-29T23:59:56.834Z,19.30
